Time;durP1;ratioP1;P1;durP2;ratioP2;P2;SDS_P1;SDS_P2;PMS_P1;PMS_P2;Temp;Humidity;BMP_temperature;BMP_pressure;BME280_temperature;BME280_humidity;BME280_pressure;Samples;Min_cycle;Max_cycle;Signal;HPM_P1;HPM_P2
2022/03/01 00:02:04;;;;;;;4.20;3.20;;;;;;;-0.14;53.59;98385.23;109728;1251;66705;-61
2022/03/01 00:04:33;;;;;;;4.80;3.50;;;;;;;-0.13;53.56;98387.61;109692;1250;68461;-62
2022/03/01 00:07:03;;;;;;;5.20;3.30;;;;;;;-0.10;53.29;98384.66;109539;1251;60525;-62
2022/03/01 00:09:34;;;;;;;4.70;3.30;;;;;;;-0.09;53.11;98382.41;109742;1250;60527;-62
2022/03/01 00:12:04;;;;;;;4.40;3.10;;;;;;;-0.05;52.92;98386.98;109794;1250;71318;-64
2022/03/01 00:14:33;;;;;;;5.30;3.70;;;;;;;-0.03;52.75;98390.38;109838;1250;67928;-62
2022/03/01 00:17:03;;;;;;;4.50;3.00;;;;;;;0.00;52.55;98386.39;109783;1250;68622;-62
2022/03/01 00:19:33;;;;;;;4.80;3.30;;;;;;;0.02;52.50;98385.85;109835;1250;60480;-61
2022/03/01 00:22:02;;;;;;;5.50;3.20;;;;;;;0.03;52.18;98385.85;109732;1251;60577;-63
2022/03/01 00:24:34;;;;;;;4.50;2.70;;;;;;;0.04;51.67;98381.70;109775;1250;72444;-61
2022/03/01 00:27:05;;;;;;;3.70;2.80;;;;;;;0.09;51.74;98378.71;109718;1250;68598;-62
2022/03/01 00:29:36;;;;;;;3.50;2.60;;;;;;;0.10;51.69;98377.00;109821;1250;69388;-62
2022/03/01 00:32:06;;;;;;;4.40;2.90;;;;;;;0.12;51.45;98375.06;109789;1250;60547;-62
2022/03/01 00:34:38;;;;;;;4.30;3.10;;;;;;;0.12;51.09;98377.98;109577;1250;60573;-62
2022/03/01 00:37:08;;;;;;;5.50;3.00;;;;;;;0.15;50.53;98375.88;109814;1250;71568;-62
2022/03/01 00:39:40;;;;;;;3.80;2.60;;;;;;;0.18;50.47;98372.74;109664;1251;68917;-62
2022/03/01 00:42:10;;;;;;;3.20;2.30;;;;;;;0.19;50.21;98372.23;109846;1250;69384;-61
2022/03/01 00:44:41;;;;;;;2.70;2.40;;;;;;;0.19;50.08;98365.70;109686;1250;60544;-61
2022/03/01 00:47:11;;;;;;;4.40;2.50;;;;;;;0.20;49.46;98364.98;109838;1250;60531;-61
2022/03/01 00:49:41;;;;;;;3.60;2.80;;;;;;;0.22;49.63;98365.81;109931;1250;71427;-64
2022/03/01 00:52:11;;;;;;;3.80;2.90;;;;;;;0.21;49.05;98365.67;109826;1250;68141;-62
2022/03/01 00:54:40;;;;;;;3.10;2.10;;;;;;;0.21;48.96;98366.70;109613;1251;68489;-63
2022/03/01 00:57:10;;;;;;;4.10;2.80;;;;;;;0.23;48.53;98370.09;109772;1250;60436;-61
2022/03/01 00:59:40;;;;;;;4.20;2.80;;;;;;;0.23;48.68;98369.06;109770;1250;60485;-63
2022/03/01 01:02:10;;;;;;;3.80;2.60;;;;;;;0.22;48.35;98371.30;109861;1250;71661;-62
2022/03/01 01:04:40;;;;;;;4.80;2.50;;;;;;;0.24;48.29;98368.37;109862;1250;68633;-63
2022/03/01 01:07:10;;;;;;;3.40;2.60;;;;;;;0.23;47.64;98365.46;109883;1250;69324;-62
2022/03/01 01:09:40;;;;;;;;;;;;;;;0.25;47.66;98364.92;109553;1251;60525;-62
2022/03/01 01:12:11;;;;;;;3.70;2.80;;;;;;;0.24;47.27;98362.89;109797;1250;60543;-61
2022/03/01 01:14:40;;;;;;;3.90;2.80;;;;;;;0.24;47.46;98358.07;109628;1250;72393;-63
2022/03/01 01:17:12;;;;;;;4.60;2.80;;;;;;;0.24;46.72;98360.48;109616;1251;68586;-62
2022/03/01 01:19:42;;;;;;;4.30;2.70;;;;;;;0.25;46.68;98363.20;109802;1250;69552;-62
2022/03/01 01:25:01;;;;;;;3.50;2.60;;;;;;;0.25;46.01;98360.63;109611;1250;60518;-62
2022/03/01 01:27:30;;;;;;;3.90;3.10;;;;;;;0.26;45.44;98358.39;109713;1250;71808;-62
2022/03/01 01:30:00;;;;;;;4.40;3.50;;;;;;;0.27;45.32;98356.31;109634;1250;68405;-62
2022/03/01 01:32:30;;;;;;;3.80;2.40;;;;;;;0.29;45.42;98354.58;109751;1250;67540;-61
2022/03/01 01:35:00;;;;;;;3.80;2.80;;;;;;;0.28;45.40;98351.84;109730;1249;60652;-62
2022/03/01 01:37:30;;;;;;;4.10;2.80;;;;;;;0.28;45.22;98347.71;109857;1250;60575;-61
2022/03/01 01:40:02;;;;;;;4.40;2.50;;;;;;;0.28;45.32;98343.77;109666;1250;71433;-61
2022/03/01 01:42:32;;;;;;;4.50;2.90;;;;;;;0.29;46.01;98337.95;109779;1250;68570;-64
2022/03/01 01:45:04;;;;;;;4.40;3.50;;;;;;;0.26;47.95;98341.08;109806;1250;69440;-63
2022/03/01 01:47:48;;;;;;;5.60;3.90;;;;;;;0.21;48.61;98342.02;109893;1250;60472;-62
2022/03/01 01:50:20;;;;;;;6.60;4.10;;;;;;;0.20;48.89;98342.72;109774;1250;60550;-61
2022/03/01 01:52:51;;;;;;;6.50;5.00;;;;;;;0.19;49.59;98344.96;109708;1250;72336;-63
2022/03/01 01:55:27;;;;;;;7.20;5.60;;;;;;;0.14;51.08;98343.84;109791;1250;67834;-62
2022/03/01 01:57:58;;;;;;;7.70;4.90;;;;;;;0.11;51.52;98341.48;109834;1250;68482;-61
2022/03/01 02:00:29;;;;;;;6.00;4.40;;;;;;;0.11;51.43;98336.36;109832;1249;60595;-61
2022/03/01 02:03:00;;;;;;;5.90;4.60;;;;;;;0.09;52.70;98336.90;109703;1250;60460;-61
2022/03/01 02:05:29;;;;;;;5.20;4.40;;;;;;;0.07;52.28;98333.86;109757;1250;70498;-62
2022/03/01 02:08:00;;;;;;;5.90;3.70;;;;;;;0.05;52.59;98336.10;109897;1250;67649;-60
2022/03/01 02:10:31;;;;;;;8.90;6.10;;;;;;;0.03;53.21;98331.34;109719;1249;68507;-64
2022/03/01 02:13:01;;;;;;;6.70;5.00;;;;;;;0.02;53.38;98329.48;109852;1250;60491;-63
2022/03/01 02:15:31;;;;;;;7.30;5.10;;;;;;;0.00;53.81;98330.88;109782;1250;60491;-62
2022/03/01 02:18:02;;;;;;;7.20;5.10;;;;;;;-0.02;53.52;98328.33;109840;1250;72361;-61
2022/03/01 02:20:31;;;;;;;;;;;;;;;-0.05;54.54;98334.72;109877;1250;68472;-61
2022/03/01 02:23:02;;;;;;;7.80;5.90;;;;;;;-0.10;55.03;98329.31;109856;1250;69398;-62
2022/03/01 02:25:32;;;;;;;;;;;;;;;-0.12;54.85;98332.43;109861;1249;60544;-62
2022/03/01 02:28:03;;;;;;;6.90;4.60;;;;;;;-0.14;54.58;98333.84;109848;1250;60494;-60
2022/03/01 02:30:34;;;;;;;6.90;4.90;;;;;;;-0.12;54.31;98335.34;109784;1250;71581;-63
2022/03/01 02:33:06;;;;;;;7.80;5.20;;;;;;;-0.13;55.08;98338.61;109742;1250;68187;-62
2022/03/01 02:35:36;;;;;;;;;;;;;;;-0.13;54.32;98339.45;109828;1250;69394;-59
2022/03/01 02:38:07;;;;;;;6.00;4.00;;;;;;;-0.14;54.58;98335.04;109828;1250;60878;-63
2022/03/01 02:40:37;;;;;;;7.20;4.40;;;;;;;-0.15;55.15;98332.65;109790;1250;60465;-62
2022/03/01 02:43:10;;;;;;;6.80;4.70;;;;;;;-0.17;54.97;98330.11;109485;1251;321186;-64
2022/03/01 02:45:40;;;;;;;7.20;4.50;;;;;;;-0.15;54.41;98329.40;109636;1250;68583;-61
2022/03/01 02:48:11;;;;;;;6.40;4.30;;;;;;;-0.18;54.41;98332.70;109566;1250;69003;-62
2022/03/01 02:50:41;;;;;;;;;;;;;;;-0.21;53.85;98331.02;109737;1250;60500;-62
2022/03/01 02:53:11;;;;;;;5.60;4.10;;;;;;;-0.23;54.04;98329.51;109970;1249;60446;-62
2022/03/01 02:55:41;;;;;;;6.50;4.10;;;;;;;-0.27;53.97;98329.92;109624;1251;72353;-61
2022/03/01 02:58:11;;;;;;;6.60;4.00;;;;;;;-0.25;53.83;98332.11;109616;1250;66849;-62
2022/03/01 03:00:41;;;;;;;5.80;3.90;;;;;;;-0.22;53.71;98333.44;109868;1250;68624;-63
2022/03/01 03:03:15;;;;;;;6.10;4.10;;;;;;;-0.23;53.73;98332.42;109836;1250;60524;-63
2022/03/01 03:05:46;;;;;;;5.70;3.90;;;;;;;-0.26;53.98;98331.94;109646;1250;60457;-62
2022/03/01 03:08:16;;;;;;;7.10;4.50;;;;;;;-0.28;54.13;98332.66;109869;1250;72391;-62
2022/03/01 03:10:46;;;;;;;;;;;;;;;-0.28;54.25;98332.48;109606;1250;68136;-63
2022/03/01 03:13:17;;;;;;;4.40;3.70;;;;;;;-0.25;54.56;98329.88;109810;1250;68685;-61
2022/03/01 03:15:48;;;;;;;5.10;4.00;;;;;;;-0.29;54.96;98331.30;110001;1248;60543;-63
2022/03/01 03:18:19;;;;;;;4.50;3.30;;;;;;;-0.30;55.17;98332.19;109810;1250;60485;-61
2022/03/01 03:20:50;;;;;;;5.80;4.10;;;;;;;-0.31;54.83;98335.63;109592;1250;72251;-61
2022/03/01 03:23:21;;;;;;;;;;;;;;;-0.34;54.96;98329.83;109755;1250;67798;-63
2022/03/01 03:25:51;;;;;;;5.50;3.50;;;;;;;-0.34;54.87;98331.55;109785;1250;69192;-62
2022/03/01 03:28:21;;;;;;;4.40;2.90;;;;;;;-0.36;54.84;98331.92;109606;1252;60550;-63
2022/03/01 03:30:51;;;;;;;5.40;4.00;;;;;;;-0.37;54.78;98331.94;109737;1250;60557;-60
2022/03/01 03:33:21;;;;;;;5.00;3.40;;;;;;;-0.38;54.86;98328.70;109752;1250;72199;-63
2022/03/01 03:35:51;;;;;;;;;;;;;;;-0.40;54.82;98330.80;109848;1249;67850;-61
2022/03/01 03:38:21;;;;;;;4.70;2.80;;;;;;;-0.40;54.36;98326.85;109828;1249;69459;-62
2022/03/01 03:40:53;;;;;;;5.00;3.30;;;;;;;-0.40;54.56;98324.61;109828;1250;60594;-62
2022/03/01 03:43:23;;;;;;;4.60;3.10;;;;;;;-0.42;54.89;98325.16;109895;1250;60481;-62
2022/03/01 03:45:53;;;;;;;4.60;3.20;;;;;;;-0.41;54.84;98321.73;109814;1250;72325;-60
2022/03/01 03:48:23;;;;;;;5.20;2.80;;;;;;;-0.45;55.62;98321.10;109656;1251;68699;-61
2022/03/01 03:50:55;;;;;;;4.10;3.30;;;;;;;-0.43;55.16;98323.63;109811;1250;68679;-64
2022/03/01 03:53:25;;;;;;;4.80;3.10;;;;;;;-0.44;55.39;98324.84;109787;1250;60513;-63
2022/03/01 03:55:57;;;;;;;4.80;3.10;;;;;;;-0.48;55.34;98325.59;109733;1250;60491;-64
2022/03/01 03:58:30;;;;;;;5.70;3.60;;;;;;;-0.50;55.36;98324.42;109866;1250;72370;-66
2022/03/01 04:01:02;;;;;;;4.20;2.90;;;;;;;-0.53;55.44;98324.11;109840;1250;68604;-63
2022/03/01 04:03:35;;;;;;;5.30;3.40;;;;;;;-0.54;55.38;98320.88;109819;1249;69264;-65
2022/03/01 04:06:06;;;;;;;3.40;2.50;;;;;;;-0.56;55.29;98322.61;109718;1250;60550;-64
2022/03/01 04:08:38;;;;;;;5.30;3.40;;;;;;;-0.58;55.50;98319.91;109782;1250;60542;-63
2022/03/01 04:11:10;;;;;;;4.10;3.10;;;;;;;-0.60;55.44;98317.02;109853;1250;72318;-65
2022/03/01 04:13:42;;;;;;;3.80;2.70;;;;;;;-0.60;55.46;98317.20;109603;1250;67754;-64
2022/03/01 04:16:15;;;;;;;5.20;3.10;;;;;;;-0.61;55.72;98317.04;109663;1250;69396;-65
2022/03/01 04:19:02;;;;;;;3.60;2.90;;;;;;;-0.61;55.58;98318.91;109513;1250;60534;-63
2022/03/01 04:21:37;;;;;;;5.70;3.80;;;;;;;-0.62;55.57;98319.11;109557;1251;60584;-64
2022/03/01 04:24:08;;;;;;;5.10;3.60;;;;;;;-0.62;55.61;98315.17;109822;1249;72550;-64
2022/03/01 04:26:40;;;;;;;4.50;2.90;;;;;;;-0.63;55.52;98317.93;109876;1250;68069;-64
2022/03/01 04:29:11;;;;;;;5.00;3.10;;;;;;;-0.64;55.39;98312.63;109828;1250;69541;-63
2022/03/01 04:31:42;;;;;;;4.40;3.00;;;;;;;-0.64;55.06;98311.94;109695;1250;60555;-65
2022/03/01 04:34:15;;;;;;;6.80;3.70;;;;;;;-0.61;54.55;98307.62;109486;1250;60569;-65
2022/03/01 04:36:48;;;;;;;4.40;3.10;;;;;;;-0.63;54.61;98305.44;109768;1250;70626;-63
2022/03/01 04:39:22;;;;;;;4.50;2.80;;;;;;;-0.61;54.44;98306.94;109693;1250;69748;-67
2022/03/01 04:41:56;;;;;;;3.90;2.50;;;;;;;-0.62;54.28;98306.60;109629;1250;68808;-63
2022/03/01 04:44:25;;;;;;;4.10;3.40;;;;;;;-0.62;54.31;98309.02;109808;1249;60489;-62
2022/03/01 04:46:55;;;;;;;4.30;2.80;;;;;;;-0.64;54.31;98306.30;109825;1250;60500;-60
2022/03/01 04:49:25;;;;;;;5.20;3.20;;;;;;;-0.61;54.09;98304.37;109915;1250;71685;-63
2022/03/01 04:51:55;;;;;;;3.30;2.40;;;;;;;-0.65;53.90;98301.16;109838;1250;67663;-61
2022/03/01 04:54:25;;;;;;;4.00;2.60;;;;;;;-0.64;53.83;98299.95;109738;1250;69391;-62
2022/03/01 04:56:55;;;;;;;6.10;3.20;;;;;;;-0.62;53.47;98299.59;109757;1250;60545;-64
2022/03/01 04:59:24;;;;;;;5.60;3.20;;;;;;;-0.64;53.34;98302.88;109836;1250;60560;-63
2022/03/01 05:01:54;;;;;;;4.30;2.90;;;;;;;-0.65;52.81;98301.52;109778;1250;72367;-62
2022/03/01 05:04:23;;;;;;;4.50;3.20;;;;;;;-0.68;52.77;98301.55;109809;1250;68559;-63
2022/03/01 05:06:53;;;;;;;4.00;2.70;;;;;;;-0.65;52.93;98301.52;109680;1250;69623;-62
2022/03/01 05:09:22;;;;;;;3.20;2.70;;;;;;;-0.62;53.13;98293.92;109856;1248;60912;-62
2022/03/01 05:11:52;;;;;;;3.70;2.80;;;;;;;-0.59;52.98;98296.46;109633;1251;60480;-62
2022/03/01 05:14:21;;;;;;;4.60;2.90;;;;;;;-0.58;52.45;98294.91;109909;1250;72358;-63
2022/03/01 05:16:51;;;;;;;3.90;2.70;;;;;;;-0.57;52.27;98298.48;109978;1248;68615;-62
2022/03/01 05:19:20;;;;;;;4.00;3.00;;;;;;;-0.57;51.91;98294.88;109838;1250;69451;-63
2022/03/01 05:21:50;;;;;;;3.10;2.40;;;;;;;-0.58;51.67;98293.19;109911;1249;60547;-67
2022/03/01 05:24:21;;;;;;;3.80;2.60;;;;;;;-0.57;51.60;98295.05;109938;1249;60490;-61
2022/03/01 05:26:51;;;;;;;3.90;2.50;;;;;;;-0.54;51.67;98284.08;109847;1250;72254;-62
2022/03/01 05:29:20;;;;;;;2.80;2.50;;;;;;;-0.50;51.52;98279.72;110031;1250;67842;-64
2022/03/01 05:31:50;;;;;;;4.50;2.60;;;;;;;-0.47;51.61;98279.34;109844;1250;68669;-61
2022/03/01 05:34:20;;;;;;;2.80;2.30;;;;;;;-0.43;51.41;98278.59;109870;1250;60562;-63
2022/03/01 05:36:50;;;;;;;5.30;4.20;;;;;;;-0.44;49.51;98283.23;109956;1250;60515;-63
2022/03/01 05:39:19;;;;;;;4.60;3.30;;;;;;;-0.45;49.10;98283.58;109776;1250;72206;-62
2022/03/01 05:41:49;;;;;;;10.50;3.00;;;;;;;-0.46;49.32;98291.66;109779;1250;68597;-61
2022/03/01 05:44:20;;;;;;;4.70;3.10;;;;;;;-0.45;49.62;98290.10;109850;1250;68634;-62
2022/03/01 05:46:50;;;;;;;6.80;3.60;;;;;;;-0.41;49.76;98288.33;109849;1250;60504;-62
2022/03/01 05:49:19;;;;;;;7.10;3.10;;;;;;;-0.42;48.51;98286.45;110077;1248;60503;-62
2022/03/01 05:51:49;;;;;;;5.30;3.10;;;;;;;-0.38;48.54;98288.11;109732;1250;72345;-63
2022/03/01 05:54:19;;;;;;;6.30;3.30;;;;;;;-0.35;48.24;98289.61;109709;1250;67287;-64
2022/03/01 05:56:48;;;;;;;5.30;2.80;;;;;;;-0.33;48.13;98296.77;109993;1250;69440;-63
2022/03/01 05:59:18;;;;;;;5.20;3.00;;;;;;;-0.27;48.89;98292.91;109819;1250;60541;-61
2022/03/01 06:01:50;;;;;;;4.20;2.90;;;;;;;-0.21;48.96;98296.23;109763;1250;60548;-61
2022/03/01 06:04:22;;;;;;;4.00;2.90;;;;;;;-0.14;48.51;98290.98;109819;1250;71765;-62
2022/03/01 06:06:51;;;;;;;4.60;2.70;;;;;;;-0.08;47.48;98287.83;109619;1250;67677;-61
2022/03/01 06:09:21;;;;;;;4.60;2.80;;;;;;;0.00;47.48;98283.91;109579;1250;69535;-63
2022/03/01 06:11:51;;;;;;;4.50;2.60;;;;;;;0.10;46.27;98286.14;109925;1249;60579;-61
2022/03/01 06:14:20;;;;;;;4.50;2.80;;;;;;;0.18;46.36;98285.84;109727;1250;60516;-61
2022/03/01 06:16:50;;;;;;;4.30;2.50;;;;;;;0.27;46.40;98286.89;109703;1250;72462;-61
2022/03/01 06:19:20;;;;;;;5.40;2.90;;;;;;;0.38;46.13;98288.04;109926;1249;67756;-61
2022/03/01 06:21:52;;;;;;;3.40;1.90;;;;;;;0.52;45.02;98283.17;109934;1250;69355;-60
2022/03/01 06:24:23;;;;;;;3.50;2.50;;;;;;;0.63;44.97;98286.22;109553;1250;60540;-62
2022/03/01 06:26:52;;;;;;;5.10;2.50;;;;;;;0.77;44.73;98283.54;109881;1249;60482;-62
2022/03/01 06:29:21;;;;;;;4.80;2.60;;;;;;;0.94;44.28;98285.08;109624;1250;71684;-64
2022/03/01 06:31:50;;;;;;;4.70;2.20;;;;;;;1.19;44.58;98288.35;109753;1250;68622;-61
2022/03/01 06:34:20;;;;;;;3.60;2.50;;;;;;;1.53;43.95;98289.81;110009;1250;69541;-63
2022/03/01 06:36:50;;;;;;;4.80;2.70;;;;;;;1.82;41.12;98287.61;109703;1250;60503;-62
2022/03/01 06:39:21;;;;;;;3.00;2.00;;;;;;;2.20;42.38;98286.88;109924;1250;60447;-62
2022/03/01 06:41:50;;;;;;;4.90;2.90;;;;;;;2.57;41.31;98289.16;109760;1250;72587;-62
2022/03/01 06:44:20;;;;;;;3.00;2.30;;;;;;;2.90;41.74;98288.08;109940;1250;68643;-61
2022/03/01 06:46:49;;;;;;;3.90;2.50;;;;;;;3.08;38.56;98287.39;109858;1249;68651;-63
2022/03/01 06:49:19;;;;;;;3.60;2.00;;;;;;;3.25;39.54;98287.75;109755;1249;60610;-61
2022/03/01 06:51:48;;;;;;;4.10;2.60;;;;;;;3.49;38.72;98279.11;109949;1249;60504;-61
2022/03/01 06:54:18;;;;;;;4.40;2.50;;;;;;;3.80;36.91;98279.52;109915;1250;72360;-63
2022/03/01 06:56:47;;;;;;;5.30;2.30;;;;;;;4.08;37.57;98281.91;109992;1249;68771;-59
2022/03/01 06:59:17;;;;;;;3.60;2.30;;;;;;;4.36;37.27;98288.91;109965;1248;68637;-61
2022/03/01 07:01:46;;;;;;;4.20;2.10;;;;;;;4.63;36.67;98288.85;109943;1250;60603;-62
2022/03/01 07:04:17;;;;;;;4.40;2.50;;;;;;;4.89;35.56;98289.12;110246;1250;60568;-63
2022/03/01 07:06:49;;;;;;;4.10;2.40;;;;;;;5.09;34.38;98285.98;109622;1250;71810;-62
2022/03/01 07:09:27;;;;;;;3.90;2.60;;;;;;;5.37;34.82;98283.38;109938;1249;68576;-62
2022/03/01 07:12:02;;;;;;;5.20;2.90;;;;;;;5.66;33.33;98282.27;109685;1250;69521;-60
2022/03/01 07:14:42;;;;;;;6.00;2.30;;;;;;;5.72;32.54;98280.30;109806;1250;60478;-64
2022/03/01 07:17:17;;;;;;;4.60;2.90;;;;;;;5.79;33.56;98271.89;109602;1250;60513;-62
2022/03/01 07:19:52;;;;;;;4.60;2.50;;;;;;;5.81;32.36;98269.20;109796;1250;72143;-61
2022/03/01 07:22:30;;;;;;;3.70;2.20;;;;;;;5.86;32.22;98269.34;109845;1250;67838;-62
2022/03/01 07:25:27;;;;;;;4.20;2.20;;;;;;;5.86;31.58;98271.83;110161;1250;69452;-63
2022/03/01 07:28:04;;;;;;;3.90;2.40;;;;;;;6.23;32.02;98271.52;109728;1250;60529;-64
2022/03/01 07:30:38;;;;;;;4.10;2.00;;;;;;;6.50;32.27;98276.61;109931;1250;60539;-65
2022/03/01 07:33:15;;;;;;;3.50;2.50;;;;;;;6.79;31.44;98274.33;109967;1250;71657;-64
2022/03/01 07:36:02;;;;;;;3.20;2.00;;;;;;;7.08;30.41;98274.60;110066;1250;68558;-63
2022/03/01 07:38:47;;;;;;;2.70;2.20;;;;;;;7.25;30.25;98278.33;109768;1250;68633;-65
2022/03/01 07:41:23;;;;;;;3.30;2.40;;;;;;;7.52;30.19;98272.55;109575;1250;60620;-64
2022/03/01 07:44:01;;;;;;;3.40;2.20;;;;;;;8.06;28.11;98264.59;109955;1250;60442;-66
2022/03/01 07:47:10;;;;;;;4.50;2.40;;;;;;;8.56;28.18;98265.59;109738;1250;71809;-65
2022/03/01 07:49:43;;;;;;;4.10;2.30;;;;;;;8.66;26.61;98264.77;109598;1250;67743;-64
2022/03/01 07:52:24;;;;;;;5.20;3.00;;;;;;;8.30;26.73;98268.27;109914;1249;68911;-62
2022/03/01 07:55:16;;;;;;;3.70;2.50;;;;;;;8.04;27.01;98265.73;109870;1249;60557;-64
2022/03/01 07:57:53;;;;;;;4.40;2.30;;;;;;;8.43;26.63;98268.86;109683;1250;60499;-64
2022/03/01 08:00:30;;;;;;;3.10;2.10;;;;;;;8.99;26.71;98270.15;109837;1250;72155;-64
2022/03/01 08:03:06;;;;;;;2.90;2.60;;;;;;;9.27;26.36;98271.95;109799;1250;68083;-66
2022/03/01 08:05:44;;;;;;;5.30;3.20;;;;;;;9.31;26.01;98268.46;109923;1250;68700;-63
2022/03/01 08:08:29;;;;;;;3.40;2.50;;;;;;;9.13;26.29;98269.39;109721;1250;60520;-65
2022/03/01 08:11:12;;;;;;;5.20;2.70;;;;;;;8.63;25.53;98271.50;109800;1250;60486;-63
2022/03/01 08:13:48;;;;;;;3.10;1.90;;;;;;;7.79;25.93;98271.45;109736;1251;71270;-64
2022/03/01 08:16:25;;;;;;;3.40;1.70;;;;;;;7.40;26.22;98271.04;109875;1250;67680;-64
2022/03/01 08:19:11;;;;;;;2.10;1.40;;;;;;;7.24;27.63;98275.75;109731;1250;70600;-63
2022/03/01 08:21:51;;;;;;;2.40;1.60;;;;;;;7.09;27.39;98276.30;109583;1252;60565;-63
2022/03/01 08:24:30;;;;;;;2.60;1.60;;;;;;;6.91;26.86;98273.95;109578;1250;60481;-66
2022/03/01 08:27:14;;;;;;;2.30;1.70;;;;;;;6.77;27.03;98273.20;109717;1251;72611;-68
2022/03/01 08:29:48;;;;;;;2.40;1.60;;;;;;;6.60;27.12;98270.81;109730;1253;67633;-65
2022/03/01 08:32:26;;;;;;;2.10;1.60;;;;;;;6.12;26.85;98267.14;109689;1250;68376;-62
2022/03/01 08:35:02;;;;;;;2.70;1.70;;;;;;;6.14;27.77;98261.17;109635;1250;60506;-63
2022/03/01 08:37:43;;;;;;;2.90;1.80;;;;;;;6.00;27.44;98253.57;109873;1250;60510;-64
2022/03/01 08:40:24;;;;;;;2.70;1.80;;;;;;;6.01;27.75;98249.91;109847;1250;71395;-64
2022/03/01 08:42:59;;;;;;;2.20;1.60;;;;;;;5.85;27.14;98244.83;109802;1250;67840;-67
2022/03/01 08:45:40;;;;;;;2.20;1.40;;;;;;;5.95;27.67;98242.38;109796;1250;68423;-67
2022/03/01 08:48:25;;;;;;;2.20;1.50;;;;;;;6.07;27.53;98247.42;109563;1250;60554;-62
2022/03/01 08:51:02;;;;;;;2.80;1.60;;;;;;;6.20;26.92;98246.05;109841;1250;60538;-63
2022/03/01 08:53:43;;;;;;;2.50;1.40;;;;;;;6.27;26.24;98241.42;109763;1250;72400;-65
2022/03/01 08:56:22;;;;;;;5.40;1.60;;;;;;;6.21;26.53;98240.78;110051;1250;67797;-65
2022/03/01 08:59:01;;;;;;;4.50;2.20;;;;;;;6.02;26.91;98236.36;109600;1252;68646;-64
2022/03/01 09:01:37;;;;;;;2.10;1.50;;;;;;;5.83;27.12;98230.37;109722;1250;60558;-64
2022/03/01 09:04:13;;;;;;;;;;;;;;;5.78;27.06;98229.22;109723;1250;60556;-64
2022/03/01 09:06:51;;;;;;;4.30;2.40;;;;;;;5.50;26.99;98221.50;109881;1250;72350;-65
2022/03/01 09:09:34;;;;;;;3.10;1.90;;;;;;;5.47;27.43;98224.22;109765;1250;67662;-64
2022/03/01 09:12:13;;;;;;;1.90;1.40;;;;;;;5.49;27.41;98219.11;109712;1250;68772;-65
2022/03/01 09:14:45;;;;;;;3.00;1.80;;;;;;;5.62;27.34;98217.55;109754;1250;61645;-65
2022/03/01 09:17:25;;;;;;;2.30;1.50;;;;;;;5.83;26.90;98212.91;109558;1250;60609;-67
2022/03/01 09:20:01;;;;;;;2.40;1.60;;;;;;;6.08;26.95;98217.46;109755;1250;72389;-65
2022/03/01 09:22:41;;;;;;;2.60;1.60;;;;;;;6.17;26.79;98220.71;109679;1250;68035;-67
2022/03/01 09:25:16;;;;;;;2.50;1.50;;;;;;;6.24;25.95;98218.16;109724;1253;67686;-66
2022/03/01 09:27:59;;;;;;;;;;;;;;;6.49;26.85;98219.35;109724;1250;60478;-66
2022/03/01 09:30:39;;;;;;;2.60;1.50;;;;;;;6.86;26.59;98219.94;109816;1250;60519;-66
2022/03/01 09:33:17;;;;;;;2.00;1.50;;;;;;;7.19;26.01;98211.34;110025;1250;71881;-66
2022/03/01 09:35:50;;;;;;;2.30;1.70;;;;;;;7.30;25.58;98210.16;109674;1250;68719;-65
2022/03/01 09:38:28;;;;;;;2.00;1.30;;;;;;;7.02;24.59;98206.38;109618;1253;69168;-67
2022/03/01 09:41:10;;;;;;;1.80;1.00;;;;;;;6.94;24.88;98208.69;109749;1250;60531;-63
2022/03/01 09:43:54;;;;;;;3.10;1.40;;;;;;;7.30;24.69;98200.42;109800;1249;60558;-62
2022/03/01 09:46:30;;;;;;;2.10;1.30;;;;;;;7.62;24.01;98195.42;109655;1251;71412;-64
2022/03/01 09:49:06;;;;;;;2.20;1.70;;;;;;;7.84;24.47;98200.41;109790;1250;69011;-63
2022/03/01 09:51:41;;;;;;;4.40;1.50;;;;;;;8.18;24.06;98194.23;109812;1250;69532;-64
2022/03/01 09:54:15;;;;;;;2.00;1.50;;;;;;;8.46;24.23;98191.22;109633;1250;60471;-67
2022/03/01 09:57:02;;;;;;;3.60;1.50;;;;;;;8.88;23.82;98192.51;109771;1250;60495;-63
2022/03/01 09:59:46;;;;;;;3.20;1.90;;;;;;;9.01;23.41;98191.65;109794;1250;71546;-65
2022/03/01 10:02:40;;;;;;;3.00;1.70;;;;;;;9.12;23.51;98186.15;109815;1250;67698;-64
2022/03/01 10:05:39;;;;;;;2.20;1.50;;;;;;;9.30;23.42;98187.09;109902;1251;69354;-66
2022/03/01 10:08:23;;;;;;;2.20;1.40;;;;;;;9.59;22.70;98179.54;109721;1250;60749;-66
2022/03/01 10:11:04;;;;;;;2.80;1.60;;;;;;;9.70;22.36;98180.51;109884;1249;60522;-65
2022/03/01 10:13:42;;;;;;;4.10;1.60;;;;;;;9.88;22.60;98184.67;109766;1249;71657;-65
2022/03/01 10:16:18;;;;;;;3.80;1.90;;;;;;;10.11;22.21;98181.73;109822;1250;68553;-63
2022/03/01 10:18:57;;;;;;;20.00;11.40;;;;;;;10.03;21.86;98179.81;109825;1249;68840;-66
2022/03/01 10:21:41;;;;;;;3.80;2.30;;;;;;;10.35;21.64;98180.95;109615;1250;60623;-63
2022/03/01 10:24:25;;;;;;;3.30;2.00;;;;;;;10.48;21.36;98175.08;109637;1250;60529;-64
2022/03/01 10:27:06;;;;;;;2.50;1.70;;;;;;;10.55;22.23;98173.09;109835;1250;72305;-65
2022/03/01 10:29:48;;;;;;;;;;;;;;;10.90;21.62;98162.05;109746;1251;67884;-64
2022/03/01 10:32:25;;;;;;;3.90;2.00;;;;;;;10.41;20.81;98158.58;109871;1249;68627;-62
2022/03/01 10:35:11;;;;;;;2.70;1.70;;;;;;;9.90;21.30;98154.14;109874;1250;60570;-64
2022/03/01 10:37:53;;;;;;;2.80;1.80;;;;;;;9.98;21.68;98156.96;109794;1250;62009;-62
2022/03/01 10:40:28;;;;;;;2.80;1.80;;;;;;;10.34;21.51;98155.34;109823;1250;72834;-66
2022/03/01 10:43:05;;;;;;;3.10;2.10;;;;;;;10.66;20.88;98154.27;109676;1250;68481;-65
2022/03/01 10:45:52;;;;;;;2.70;1.70;;;;;;;10.75;20.88;98147.98;109745;1250;68705;-63
2022/03/01 10:48:34;;;;;;;2.90;1.80;;;;;;;10.58;21.18;98147.80;109725;1250;60545;-63
2022/03/01 10:51:11;;;;;;;2.30;1.70;;;;;;;10.79;21.66;98139.75;109819;1250;60603;-64
2022/03/01 10:53:51;;;;;;;2.40;1.60;;;;;;;11.07;21.70;98139.90;109737;1250;72556;-62
2022/03/01 10:56:43;;;;;;;4.10;2.40;;;;;;;10.98;20.50;98133.13;109785;1250;68022;-64
2022/03/01 10:59:26;;;;;;;3.20;2.10;;;;;;;10.95;21.24;98127.02;109590;1250;68601;-62
2022/03/01 11:02:03;;;;;;;3.50;2.40;;;;;;;11.01;20.87;98121.27;109797;1250;60520;-63
2022/03/01 11:04:39;;;;;;;5.80;3.80;;;;;;;11.14;20.26;98121.10;109807;1250;60492;-65
2022/03/01 11:07:10;;;;;;;3.10;2.00;;;;;;;10.94;21.25;98120.62;109755;1251;71577;-63
2022/03/01 11:09:40;;;;;;;4.60;2.50;;;;;;;11.15;21.25;98116.01;109733;1250;68707;-64
2022/03/01 11:12:11;;;;;;;;;;;;;;;10.59;21.21;98116.20;109770;1250;68916;-64
2022/03/01 11:15:02;;;;;;;4.20;2.30;;;;;;;10.69;21.47;98112.81;109806;1249;60549;-62
2022/03/01 11:17:38;;;;;;;3.70;2.00;;;;;;;10.81;21.28;98111.35;109892;1249;60503;-63
2022/03/01 11:20:32;;;;;;;3.60;2.40;;;;;;;10.76;21.67;98115.34;109807;1250;72955;-63
2022/03/01 11:23:07;;;;;;;3.80;2.30;;;;;;;10.57;20.76;98110.77;109721;1250;68773;-62
2022/03/01 11:25:47;;;;;;;3.10;2.20;;;;;;;10.50;21.01;98107.52;109799;1250;69421;-61
2022/03/01 11:28:18;;;;;;;3.90;2.30;;;;;;;10.51;21.69;98101.54;109854;1250;60568;-64
2022/03/01 11:30:51;;;;;;;4.10;1.90;;;;;;;10.65;22.41;98099.82;109859;1250;60482;-65
2022/03/01 11:33:26;;;;;;;4.20;2.50;;;;;;;10.85;22.29;98097.48;109881;1250;72277;-63
2022/03/01 11:35:57;;;;;;;4.00;3.00;;;;;;;10.98;21.49;98094.21;109763;1249;68567;-62
2022/03/01 11:38:32;;;;;;;3.70;3.10;;;;;;;10.44;21.64;98096.02;109747;1250;69563;-63
2022/03/01 11:41:18;;;;;;;4.80;2.80;;;;;;;9.88;22.37;98094.88;109869;1250;60551;-64
2022/03/01 11:44:01;;;;;;;3.90;2.50;;;;;;;9.95;22.44;98095.30;109836;1250;60613;-63
2022/03/01 11:46:40;;;;;;;4.20;2.50;;;;;;;9.91;22.52;98090.69;109818;1249;71643;-62
2022/03/01 11:49:12;;;;;;;3.00;2.00;;;;;;;9.51;22.42;98087.46;109730;1250;68563;-62
2022/03/01 11:51:51;;;;;;;3.80;2.50;;;;;;;9.37;23.25;98086.30;109786;1250;69435;-63
2022/03/01 11:54:23;;;;;;;3.70;2.20;;;;;;;9.32;23.31;98080.17;109847;1250;60558;-62
2022/03/01 11:56:54;;;;;;;3.80;2.40;;;;;;;9.43;23.00;98074.71;109806;1249;60682;-64
2022/03/01 11:59:24;;;;;;;3.80;2.40;;;;;;;9.38;22.83;98070.95;109855;1250;71569;-62
2022/03/01 12:02:13;;;;;;;;;;;;;;;9.34;22.93;98065.98;109791;1250;68038;-64
2022/03/01 12:04:46;;;;;;;3.70;2.40;;;;;;;9.31;22.69;98058.36;109847;1250;69480;-63
2022/03/01 12:07:18;;;;;;;3.90;2.80;;;;;;;8.98;23.37;98056.71;109854;1248;60533;-62